createdAt,value
2023-06-04T00:02:53.058Z,96837.09
2023-06-04T00:07:46.403Z,96845.94
2023-06-04T00:12:39.815Z,96843.88
2023-06-04T00:17:33.194Z,96840.69
2023-06-04T00:22:28.290Z,96840.06
2023-06-04T00:27:21.723Z,96834.53
2023-06-04T00:32:15.155Z,96837.97
2023-06-04T00:37:08.789Z,96831.97
2023-06-04T00:42:03.539Z,96838.81
2023-06-04T00:46:56.933Z,96845.63
2023-06-04T00:51:51.489Z,96850.75
2023-06-04T00:56:45.558Z,96855.75
2023-06-04T01:01:51.689Z,96848.97
2023-06-04T01:06:51.993Z,96850.63
2023-06-04T01:11:45.503Z,96850.28
2023-06-04T01:16:49.054Z,96846.78
2023-06-04T01:21:46.004Z,96853.72
2023-06-04T01:26:40.060Z,96856.59
2023-06-04T01:31:34.106Z,96850.56
2023-06-04T01:36:29.054Z,96850.59
2023-06-04T01:41:22.394Z,96849.94
2023-06-04T01:46:15.915Z,96851.41
2023-06-04T01:51:09.485Z,96863.56
2023-06-04T01:56:04.578Z,96858.22
2023-06-04T02:01:01.460Z,96862.66
2023-06-04T02:05:54.949Z,96864.31
2023-06-04T02:10:49.070Z,96866.88
2023-06-04T02:15:44.173Z,96871.09
2023-06-04T02:20:37.457Z,96867.59
2023-06-04T02:25:30.753Z,96874.03
2023-06-04T02:30:24.166Z,96881.22
2023-06-04T02:35:22.230Z,96885.97
2023-06-04T02:40:15.707Z,96888.91
2023-06-04T02:45:10.526Z,96884.38
2023-06-04T02:50:04.702Z,96885.94
2023-06-04T02:54:59.524Z,96881.00
2023-06-04T02:59:53.084Z,96883.69
2023-06-04T03:04:48.745Z,96892.56
2023-06-04T03:09:42.627Z,96898.53
2023-06-04T03:14:37.816Z,96896.63
2023-06-04T03:19:31.111Z,96899.72
2023-06-04T03:24:24.510Z,96906.47
2023-06-04T03:29:17.842Z,96904.44
2023-06-04T03:34:13.148Z,96910.19
2023-06-04T03:39:06.768Z,96924.00
2023-06-04T03:44:00.146Z,96927.28
2023-06-04T03:48:53.476Z,96936.19
2023-06-04T03:53:48.181Z,96936.03
2023-06-04T03:58:42.103Z,96934.16
2023-06-04T04:03:37.101Z,96937.41
2023-06-04T04:08:32.666Z,96935.69
2023-06-04T04:13:27.414Z,96940.19
2023-06-04T04:18:21.320Z,96941.13
2023-06-04T04:23:15.170Z,96944.19
2023-06-04T04:28:08.742Z,96947.09
2023-06-04T04:33:05.946Z,96951.88
2023-06-04T04:37:59.474Z,96958.59
2023-06-04T04:42:52.790Z,96960.34
2023-06-04T04:47:46.558Z,96971.44
2023-06-04T04:52:41.392Z,96975.53
2023-06-04T04:57:34.727Z,96976.19
2023-06-04T05:02:28.118Z,96976.25
2023-06-04T05:07:22.705Z,96979.31
2023-06-04T05:12:17.407Z,96974.78
2023-06-04T05:17:12.163Z,96981.28
2023-06-04T05:22:06.452Z,96993.28
2023-06-04T05:26:59.878Z,96993.28
2023-06-04T05:31:54.666Z,97007.56
2023-06-04T05:36:48.137Z,97014.81
2023-06-04T05:41:41.990Z,97005.41
2023-06-04T05:46:35.414Z,97008.53
2023-06-04T05:51:30.139Z,97005.00
2023-06-04T05:56:23.513Z,96999.38
2023-06-04T06:01:16.872Z,97009.84
2023-06-04T06:06:11.549Z,97008.19
2023-06-04T06:11:09.202Z,96999.88
2023-06-04T06:16:04.486Z,97004.94
2023-06-04T06:20:57.990Z,97006.22
2023-06-04T06:25:52.942Z,97008.56
2023-06-04T06:30:48.600Z,97014.28
2023-06-04T06:35:41.965Z,97017.22
2023-06-04T06:40:35.235Z,97008.94
2023-06-04T06:45:28.577Z,97010.00
2023-06-04T06:50:23.281Z,97022.41
2023-06-04T06:55:16.696Z,97025.81
2023-06-04T07:00:12.232Z,97045.03
2023-06-04T07:05:06.303Z,97039.84
2023-06-04T07:10:02.036Z,97026.75
2023-06-04T07:14:55.354Z,97019.28
2023-06-04T07:19:48.642Z,97021.28
2023-06-04T07:24:42.165Z,97020.41
2023-06-04T07:29:37.354Z,97006.31
2023-06-04T07:34:30.912Z,97012.50
2023-06-04T07:39:26.577Z,97021.47
2023-06-04T07:44:20.037Z,97013.84
2023-06-04T07:49:14.865Z,97009.56
2023-06-04T07:54:08.280Z,96998.03
2023-06-04T07:59:01.926Z,97009.00
2023-06-04T08:03:55.453Z,97004.00
2023-06-04T08:08:51.373Z,97000.19
2023-06-04T08:13:44.774Z,96991.50
2023-06-04T08:18:40.731Z,96996.56
2023-06-04T08:23:34.203Z,96992.25
2023-06-04T08:28:28.926Z,96998.16
2023-06-04T08:33:22.464Z,96986.38
2023-06-04T08:38:15.903Z,96991.31
2023-06-04T08:43:10.064Z,96987.09
2023-06-04T08:48:08.309Z,96986.38
2023-06-04T08:53:01.959Z,96983.72
2023-06-04T08:57:55.966Z,96986.44
2023-06-04T09:02:52.251Z,96987.44
2023-06-04T09:07:48.742Z,96984.47
2023-06-04T09:12:45.981Z,96989.28
2023-06-04T09:17:39.425Z,96978.94
2023-06-04T09:22:37.287Z,96988.28
2023-06-04T09:27:41.425Z,96978.06
2023-06-04T09:32:34.819Z,96979.28
2023-06-04T09:37:29.221Z,96969.19
2023-06-04T09:42:22.946Z,96953.78
2023-06-04T09:47:18.057Z,96948.66
2023-06-04T09:52:11.558Z,96940.97
2023-06-04T09:57:06.522Z,96936.63
2023-06-04T10:02:01.770Z,96944.84
2023-06-04T10:06:57.603Z,96942.00
2023-06-04T10:12:00.229Z,96926.78
2023-06-04T10:16:56.343Z,96928.41
2023-06-04T10:21:50.327Z,96934.31
2023-06-04T10:26:45.913Z,96930.63
2023-06-04T10:31:40.357Z,96919.06
2023-06-04T10:36:33.702Z,96918.63
2023-06-04T10:41:27.710Z,96928.53
2023-06-04T10:46:23.171Z,96907.53
2023-06-04T10:51:17.506Z,96920.28
2023-06-04T10:56:11.116Z,96897.63
2023-06-04T11:01:04.687Z,96890.66
2023-06-04T11:05:59.651Z,96905.19
2023-06-04T11:10:53.066Z,96902.97
2023-06-04T11:15:49.848Z,96901.16
2023-06-04T11:20:44.216Z,96888.16
2023-06-04T11:25:38.918Z,96892.00
2023-06-04T11:30:32.420Z,96890.97
2023-06-04T11:35:26.019Z,96882.91
2023-06-04T11:40:21.084Z,96885.38
2023-06-04T11:45:18.817Z,96884.97
2023-06-04T11:50:14.208Z,96888.28
2023-06-04T11:55:12.238Z,96885.88
2023-06-04T12:00:10.083Z,96884.59
2023-06-04T12:05:19.767Z,96866.81
2023-06-04T12:10:14.328Z,96860.84
2023-06-04T12:15:10.995Z,96855.53
2023-06-04T12:20:06.759Z,96866.84
2023-06-04T12:25:04.077Z,96853.81
2023-06-04T12:29:59.744Z,96859.44
2023-06-04T12:34:53.119Z,96850.16
2023-06-04T12:39:47.285Z,96850.16
2023-06-04T12:44:42.952Z,96859.22
2023-06-04T12:49:36.758Z,96858.59
2023-06-04T12:54:30.107Z,96861.47
2023-06-04T12:59:23.424Z,96859.22
2023-06-04T13:04:18.187Z,96859.81
2023-06-04T13:09:11.828Z,96866.78
2023-06-04T13:14:05.200Z,96857.72
2023-06-04T13:19:01.694Z,96868.66
2023-06-04T13:23:57.366Z,96871.41
2023-06-04T13:28:51.092Z,96860.19
2023-06-04T13:33:44.456Z,96862.84
2023-06-04T13:38:38.117Z,96856.88
2023-06-04T13:43:32.846Z,96853.75
2023-06-04T13:48:26.213Z,96848.19
2023-06-04T13:53:19.550Z,96840.50
2023-06-04T13:58:12.933Z,96841.78
2023-06-04T14:03:07.739Z,96824.84
2023-06-04T14:08:01.157Z,96831.44
2023-06-04T14:12:54.477Z,96826.16
2023-06-04T14:17:48.746Z,96821.25
2023-06-04T14:22:43.882Z,96817.91
2023-06-04T14:27:37.780Z,96823.28
2023-06-04T14:32:31.299Z,96813.03
2023-06-04T14:37:24.710Z,96816.53
2023-06-04T14:42:19.637Z,96812.22
2023-06-04T14:47:13.232Z,96801.72
2023-06-04T14:52:07.440Z,96799.91
2023-06-04T14:57:01.056Z,96807.25
2023-06-04T15:01:56.247Z,96799.03
2023-06-04T15:06:49.712Z,96806.25
2023-06-04T15:11:43.692Z,96800.56
2023-06-04T15:16:37.097Z,96799.41
2023-06-04T15:21:31.827Z,96808.31
2023-06-04T15:26:28.201Z,96799.53
2023-06-04T15:31:21.685Z,96804.28
2023-06-04T15:36:15.057Z,96792.47
2023-06-04T15:41:10.201Z,96800.94
2023-06-04T15:46:03.629Z,96800.72
2023-06-04T15:50:56.999Z,96792.88
2023-06-04T15:55:50.586Z,96796.22
2023-06-04T16:00:55.020Z,96787.59
2023-06-04T16:05:48.403Z,96784.44
2023-06-04T16:10:42.280Z,96783.19
2023-06-04T16:15:35.641Z,96784.78
2023-06-04T16:20:30.333Z,96795.09
2023-06-04T16:25:23.632Z,96793.66
2023-06-04T16:30:18.043Z,96796.09
2023-06-04T16:35:13.329Z,96779.19
2023-06-04T16:40:10.144Z,96792.00
2023-06-04T16:45:04.721Z,96799.78
2023-06-04T16:49:59.329Z,96806.09
2023-06-04T16:54:52.672Z,96806.97
2023-06-04T16:59:49.339Z,96810.13
2023-06-04T17:04:43.200Z,96815.44
2023-06-04T17:09:36.648Z,96838.81
2023-06-04T17:14:31.284Z,96830.78
2023-06-04T17:19:26.168Z,96839.06
2023-06-04T17:24:19.610Z,96845.69
2023-06-04T17:29:13.043Z,96852.28
2023-06-04T17:34:06.396Z,96844.25
2023-06-04T17:39:01.495Z,96843.63
2023-06-04T17:43:55.905Z,96838.06
2023-06-04T17:48:49.213Z,96850.81
2023-06-04T17:53:42.652Z,96857.34
2023-06-04T17:58:37.460Z,96854.06
2023-06-04T18:03:32.036Z,96852.47
2023-06-04T18:08:25.584Z,96856.56
2023-06-04T18:13:19.202Z,96861.56
2023-06-04T18:18:14.317Z,96865.69
2023-06-04T18:23:08.269Z,96866.63
2023-06-04T18:28:01.675Z,96880.41
2023-06-04T18:32:55.157Z,96879.56
2023-06-04T18:37:49.876Z,96873.31
2023-06-04T18:42:43.234Z,96880.22
2023-06-04T18:47:36.611Z,96877.72
2023-06-04T18:52:30.073Z,96879.91
2023-06-04T18:57:24.918Z,96886.44
2023-06-04T19:02:18.404Z,96883.72
2023-06-04T19:07:11.739Z,96885.53
2023-06-04T19:12:05.554Z,96887.84
2023-06-04T19:17:03.892Z,96890.56
2023-06-04T19:21:59.255Z,96899.88
2023-06-04T19:26:52.993Z,96902.69
2023-06-04T19:31:47.592Z,96906.81
2023-06-04T19:36:42.679Z,96913.59
2023-06-04T19:41:36.151Z,96916.97
2023-06-04T19:46:29.595Z,96921.06
2023-06-04T19:51:26.427Z,96932.19
2023-06-04T19:56:22.567Z,96934.59
2023-06-04T20:01:15.984Z,96946.38
2023-06-04T20:06:09.693Z,96951.56
2023-06-04T20:11:03.342Z,96942.19
2023-06-04T20:15:58.213Z,96942.56
2023-06-04T20:20:53.269Z,96959.31
2023-06-04T20:25:46.691Z,96956.84
2023-06-04T20:30:40.407Z,96961.41
2023-06-04T20:35:35.209Z,96952.63
2023-06-04T20:40:28.801Z,96953.25
2023-06-04T20:45:22.258Z,96957.59
2023-06-04T20:50:15.744Z,96960.56
2023-06-04T20:55:12.808Z,96963.31
2023-06-04T21:00:08.624Z,96962.97
2023-06-04T21:05:02.018Z,96969.25
2023-06-04T21:09:55.327Z,96975.22
2023-06-04T21:14:50.060Z,96971.88
2023-06-04T21:19:43.446Z,96972.41
2023-06-04T21:24:36.798Z,96976.84
2023-06-04T21:29:30.154Z,96982.56
2023-06-04T21:34:24.957Z,96983.81
2023-06-04T21:39:18.270Z,96973.81
2023-06-04T21:44:11.693Z,96979.72
2023-06-04T21:49:05.639Z,96982.72
2023-06-04T21:54:00.731Z,96994.06
2023-06-04T21:58:54.510Z,96979.59
2023-06-04T22:03:47.892Z,96985.91
2023-06-04T22:08:41.304Z,96981.09
2023-06-04T22:13:36.509Z,96980.44
2023-06-04T22:18:34.933Z,96983.59
2023-06-04T22:23:41.735Z,96979.59
2023-06-04T22:28:36.437Z,96980.38
2023-06-04T22:33:30.324Z,96977.56
2023-06-04T22:38:23.856Z,96981.94
2023-06-04T22:43:17.251Z,96982.59
2023-06-04T22:48:12.088Z,96983.38
2023-06-04T22:53:09.334Z,96984.84
2023-06-04T22:58:02.626Z,96979.72
2023-06-04T23:02:56.213Z,96983.34
2023-06-04T23:07:51.115Z,96981.94
2023-06-04T23:12:44.439Z,96975.91
2023-06-04T23:17:37.811Z,96972.19
2023-06-04T23:22:31.215Z,96963.97
2023-06-04T23:27:26.105Z,96969.03
2023-06-04T23:32:19.557Z,96964.91
2023-06-04T23:37:12.991Z,96964.69
2023-06-04T23:42:07.072Z,96968.88
2023-06-04T23:47:01.772Z,96971.81
2023-06-04T23:51:55.097Z,96972.81
2023-06-04T23:56:49.459Z,96970.69
